Time;durP1;ratioP1;P1;durP2;ratioP2;P2;SDS_P1;SDS_P2;PMS_P1;PMS_P2;Temp;Humidity;BMP_temperature;BMP_pressure;BME280_temperature;BME280_humidity;BME280_pressure;Samples;Min_cycle;Max_cycle;Signal;HPM_P1;HPM_P2
2023/03/24 00:01:48;;;;;;;1.30;1.20;;;18.30;80.20;;;;;;5012547;28;20716;-63
2023/03/24 00:04:41;;;;;;;1.30;1.20;;;18.30;80.10;;;;;;5011692;28;20199;-63
2023/03/24 00:07:29;;;;;;;1.65;1.40;;;18.30;80.00;;;;;;5011991;28;20639;-63
2023/03/24 00:10:19;;;;;;;2.10;1.50;;;18.30;80.00;;;;;;5012178;28;20245;-63
2023/03/24 00:13:08;;;;;;;1.13;1.13;;;18.40;80.00;;;;;;5011165;28;20203;-63
2023/03/24 00:15:56;;;;;;;1.40;1.30;;;18.40;79.90;;;;;;5011904;28;20229;-63
2023/03/24 00:18:51;;;;;;;1.20;1.10;;;18.40;79.80;;;;;;5011784;28;20211;-63
2023/03/24 00:21:41;;;;;;;1.50;1.40;;;18.40;79.90;;;;;;5012200;28;20492;-63
2023/03/24 00:24:29;;;;;;;2.38;1.40;;;18.40;79.90;;;;;;5011861;28;20735;-63
2023/03/24 00:27:17;;;;;;;1.70;1.60;;;18.40;80.00;;;;;;5012317;28;20262;-63
2023/03/24 00:30:08;;;;;;;1.17;1.13;;;18.30;80.00;;;;;;5011709;28;20282;-63
2023/03/24 00:32:57;;;;;;;1.30;1.20;;;18.40;80.10;;;;;;5011852;28;20281;-63
2023/03/24 00:35:47;;;;;;;1.00;0.90;;;18.30;80.00;;;;;;5011353;28;20257;-63
2023/03/24 00:38:35;;;;;;;1.40;1.30;;;18.30;80.10;;;;;;5011812;28;20202;-63
2023/03/24 00:41:25;;;;;;;1.30;1.20;;;18.30;79.90;;;;;;5011433;28;20290;-63
2023/03/24 00:44:17;;;;;;;1.77;1.50;;;18.30;79.90;;;;;;5011715;28;20210;-63
2023/03/24 00:47:05;;;;;;;1.30;1.20;;;18.30;79.40;;;;;;5011662;28;20661;-63
2023/03/24 00:49:56;;;;;;;1.60;1.45;;;18.30;80.00;;;;;;5012649;28;20580;-64
2023/03/24 00:52:47;;;;;;;1.40;1.30;;;18.30;80.00;;;;;;5011123;28;20201;-63
2023/03/24 00:55:37;;;;;;;1.50;1.40;;;18.30;80.00;;;;;;5011419;28;20214;-63
2023/03/24 00:58:28;;;;;;;3.00;1.50;;;18.30;80.10;;;;;;5028187;28;20222;-63
2023/03/24 01:01:16;;;;;;;2.15;1.95;;;18.30;80.10;;;;;;5030884;28;20205;-63
2023/03/24 01:04:05;;;;;;;1.27;1.17;;;18.30;80.00;;;;;;5031617;28;20252;-63
2023/03/24 01:06:57;;;;;;;1.00;1.00;;;18.30;80.00;;;;;;5031500;28;20706;-63
2023/03/24 01:09:50;;;;;;;1.67;1.30;;;18.30;79.90;;;;;;5031205;28;20790;-63
2023/03/24 01:12:38;;;;;;;1.88;1.30;;;18.30;79.90;;;;;;5030212;28;20614;-63
2023/03/24 01:15:29;;;;;;;1.00;1.00;;;18.30;79.90;;;;;;5030594;28;20465;-63
2023/03/24 01:18:17;;;;;;;1.10;1.00;;;18.30;79.90;;;;;;5030318;28;20237;-63
2023/03/24 01:21:06;;;;;;;1.40;1.30;;;18.30;79.80;;;;;;5030803;28;20684;-63
2023/03/24 01:23:54;;;;;;;1.90;1.00;;;18.40;79.90;;;;;;5032245;28;20289;-63
2023/03/24 01:26:44;;;;;;;2.90;1.40;;;18.40;79.90;;;;;;5034229;28;20296;-63
2023/03/24 01:29:32;;;;;;;1.60;1.50;;;18.40;79.50;;;;;;5034661;28;20741;-63
2023/03/24 01:32:20;;;;;;;1.20;1.10;;;18.40;79.60;;;;;;5034203;28;20198;-63
2023/03/24 01:35:10;;;;;;;1.30;1.20;;;18.40;79.70;;;;;;5035084;28;20251;-63
2023/03/24 01:37:59;;;;;;;1.15;1.10;;;18.40;79.70;;;;;;5033884;28;20352;-63
2023/03/24 01:40:47;;;;;;;1.48;1.30;;;18.40;79.80;;;;;;5034443;28;20205;-63
2023/03/24 01:43:36;;;;;;;1.30;1.20;;;18.30;79.90;;;;;;5033768;28;20317;-63
2023/03/24 01:46:25;;;;;;;1.10;1.00;;;18.30;79.80;;;;;;5034660;28;20694;-63
2023/03/24 01:49:13;;;;;;;1.27;1.17;;;18.30;79.80;;;;;;5034776;28;20202;-63
2023/03/24 01:52:04;;;;;;;1.33;1.23;;;18.30;79.70;;;;;;5033350;28;20280;-63
2023/03/24 01:54:55;;;;;;;1.23;1.13;;;18.40;79.50;;;;;;5034031;28;20730;-63
2023/03/24 01:57:45;;;;;;;1.08;1.00;;;18.40;79.80;;;;;;5033138;28;20711;-63
2023/03/24 02:00:36;;;;;;;2.15;1.30;;;18.40;79.80;;;;;;5033797;28;20281;-63
2023/03/24 02:03:28;;;;;;;1.30;1.20;;;18.30;79.80;;;;;;5033421;28;20204;-63
2023/03/24 02:06:18;;;;;;;2.35;1.20;;;18.50;92.40;;;;;;5034259;28;20194;-63
2023/03/24 02:09:08;;;;;;;1.20;1.10;;;18.30;79.90;;;;;;5028080;28;20252;-63
2023/03/24 02:11:57;;;;;;;1.00;0.90;;;18.40;80.10;;;;;;5028531;28;20332;-63
2023/03/24 02:14:45;;;;;;;1.80;1.33;;;18.30;79.90;;;;;;5026165;28;20481;-63
2023/03/24 02:17:56;;;;;;;1.35;1.10;;;18.30;79.70;;;;;;5032713;28;20222;-63
2023/03/24 02:21:09;;;;;;;1.00;1.00;;;18.30;79.80;;;;;;5033164;28;20206;-63
2023/03/24 02:24:26;;;;;;;1.38;1.10;;;18.30;79.80;;;;;;5032824;28;20277;-63
2023/03/24 02:27:28;;;;;;;1.38;1.27;;;18.40;79.80;;;;;;5032442;28;20210;-63
2023/03/24 02:30:32;;;;;;;1.50;1.40;;;18.30;79.60;;;;;;5043957;28;20244;-63
2023/03/24 02:33:43;;;;;;;1.20;1.20;;;18.40;79.70;;;;;;5046270;28;20253;-63
2023/03/24 02:37:01;;;;;;;1.33;1.23;;;18.40;79.60;;;;;;5033869;28;20305;-63
2023/03/24 02:40:23;;;;;;;1.98;1.52;;;18.40;79.50;;;;;;5032335;28;20194;-63
2023/03/24 02:43:24;;;;;;;1.42;1.20;;;18.40;79.40;;;;;;5022861;28;20221;-63
2023/03/24 02:46:20;;;;;;;1.50;1.40;;;18.60;90.40;;;;;;5012579;28;20205;-63
2023/03/24 02:49:18;;;;;;;1.15;1.10;;;18.40;79.90;;;;;;5012928;28;20206;-63
2023/03/24 02:52:11;;;;;;;1.30;1.20;;;18.40;79.80;;;;;;5012377;28;20246;-63
2023/03/24 02:55:04;;;;;;;1.67;1.27;;;18.40;80.00;;;;;;5012745;28;20213;-63
2023/03/24 02:57:56;;;;;;;1.40;1.30;;;18.40;80.00;;;;;;5024862;28;20410;-63
2023/03/24 03:00:48;;;;;;;1.25;1.20;;;18.40;79.60;;;;;;5032979;28;20228;-63
2023/03/24 03:03:40;;;;;;;1.98;1.33;;;18.40;80.00;;;;;;5032201;28;20797;-63
2023/03/24 03:06:32;;;;;;;1.60;1.00;;;18.40;80.10;;;;;;5032184;28;20218;-63
2023/03/24 03:09:22;;;;;;;1.30;1.20;;;18.40;80.40;;;;;;5031905;28;20722;-63
2023/03/24 03:12:13;;;;;;;1.38;1.27;;;18.40;80.40;;;;;;5031757;28;20256;-63
2023/03/24 03:15:05;;;;;;;1.45;1.23;;;18.40;80.50;;;;;;5031855;28;20225;-63
2023/03/24 03:18:01;;;;;;;1.00;1.00;;;18.40;80.70;;;;;;5032330;28;20303;-63
2023/03/24 03:20:53;;;;;;;1.40;1.27;;;18.40;81.40;;;;;;5032715;28;20710;-64
2023/03/24 03:23:46;;;;;;;1.42;1.33;;;18.40;80.80;;;;;;5032065;28;20264;-63
2023/03/24 03:26:35;;;;;;;1.70;1.40;;;18.40;80.80;;;;;;5032356;28;20226;-64
2023/03/24 03:29:28;;;;;;;1.45;1.25;;;18.40;80.90;;;;;;5032610;28;20682;-63
2023/03/24 03:32:23;;;;;;;1.48;1.15;;;18.40;80.90;;;;;;5032994;28;20198;-65
2023/03/24 03:35:15;;;;;;;1.42;1.30;;;18.40;81.00;;;;;;5032724;28;20202;-63
2023/03/24 03:38:12;;;;;;;1.10;1.00;;;18.40;80.70;;;;;;5031932;28;20304;-63
2023/03/24 03:41:04;;;;;;;1.48;1.00;;;18.40;80.80;;;;;;5032508;28;20281;-63
2023/03/24 03:43:53;;;;;;;1.63;1.45;;;18.40;81.00;;;;;;5031808;28;20209;-63
2023/03/24 03:46:42;;;;;;;1.50;1.40;;;18.50;80.30;;;;;;5031260;28;20222;-63
2023/03/24 03:49:31;;;;;;;2.03;1.35;;;18.50;80.40;;;;;;5032030;28;20198;-63
2023/03/24 03:52:20;;;;;;;1.95;1.38;;;18.30;80.80;;;;;;5031410;28;20202;-64
2023/03/24 03:55:10;;;;;;;1.20;1.10;;;18.40;80.70;;;;;;5032162;28;20283;-63
2023/03/24 03:57:58;;;;;;;1.40;1.27;;;18.40;81.20;;;;;;5030849;28;20253;-63
2023/03/24 04:00:46;;;;;;;1.80;1.40;;;18.40;81.50;;;;;;5031402;28;20244;-63
2023/03/24 04:04:07;;;;;;;1.70;1.20;;;18.40;81.30;;;;;;5030828;28;20206;-63
2023/03/24 04:07:06;;;;;;;1.65;1.42;;;18.40;80.80;;;;;;5032416;28;20652;-63
2023/03/24 04:10:08;;;;;;;1.40;1.25;;;18.40;81.10;;;;;;5031849;28;20206;-64
2023/03/24 04:13:09;;;;;;;1.40;1.30;;;18.30;81.20;;;;;;5030615;28;20275;-63
2023/03/24 04:16:03;;;;;;;1.30;1.20;;;18.30;81.50;;;;;;5031392;28;20236;-63
2023/03/24 04:19:08;;;;;;;1.20;1.10;;;18.30;81.50;;;;;;5031185;28;20370;-63
2023/03/24 04:22:09;;;;;;;1.55;1.45;;;18.30;82.30;;;;;;5030671;28;20234;-63
2023/03/24 04:25:03;;;;;;;1.60;1.50;;;18.40;81.70;;;;;;5031744;28;20274;-63
2023/03/24 04:27:59;;;;;;;1.73;1.35;;;18.30;81.60;;;;;;5031510;28;20244;-63
2023/03/24 04:30:54;;;;;;;1.55;1.20;;;18.30;81.60;;;;;;5031812;28;20591;-63
2023/03/24 04:33:49;;;;;;;1.50;1.30;;;18.40;81.50;;;;;;5030935;28;20630;-63
2023/03/24 04:36:44;;;;;;;2.40;1.70;;;18.30;81.50;;;;;;5031559;28;20413;-64
2023/03/24 04:39:37;;;;;;;2.22;1.75;;;18.30;81.50;;;;;;5031714;28;20202;-63
2023/03/24 04:42:32;;;;;;;2.40;2.20;;;18.30;81.60;;;;;;5030505;28;20205;-63
2023/03/24 04:45:24;;;;;;;1.40;1.30;;;18.30;81.50;;;;;;5031240;28;20285;-63
2023/03/24 04:48:13;;;;;;;2.58;1.52;;;18.40;81.40;;;;;;5031142;28;20662;-63
2023/03/24 04:51:03;;;;;;;1.98;1.52;;;18.40;81.10;;;;;;5030892;28;20277;-63
2023/03/24 04:53:52;;;;;;;1.65;1.48;;;18.40;81.40;;;;;;5031281;28;20284;-63
2023/03/24 04:56:44;;;;;;;1.88;1.67;;;18.40;81.50;;;;;;5030632;28;20324;-63
2023/03/24 04:59:33;;;;;;;1.50;1.40;;;18.40;81.60;;;;;;5034006;28;20202;-63
2023/03/24 05:02:21;;;;;;;1.40;1.30;;;18.40;81.80;;;;;;5034879;28;20209;-64
2023/03/24 05:05:10;;;;;;;1.50;1.33;;;18.30;81.80;;;;;;5034936;28;20277;-63
2023/03/24 05:07:59;;;;;;;2.85;1.83;;;18.40;81.50;;;;;;5034889;28;20250;-63
2023/03/24 05:10:48;;;;;;;1.33;1.23;;;18.40;81.30;;;;;;5035536;28;20202;-63
2023/03/24 05:13:36;;;;;;;1.38;1.27;;;18.40;81.60;;;;;;5034271;28;20289;-63
2023/03/24 05:16:24;;;;;;;1.48;1.38;;;18.40;82.00;;;;;;5034165;28;20226;-63
2023/03/24 05:19:12;;;;;;;1.67;1.58;;;18.30;82.10;;;;;;5035004;28;20218;-64
2023/03/24 05:22:01;;;;;;;1.98;1.48;;;18.30;81.80;;;;;;5034425;28;20696;-64
2023/03/24 05:24:49;;;;;;;1.52;1.40;;;18.30;82.60;;;;;;5034639;28;20808;-64
2023/03/24 05:27:38;;;;;;;1.65;1.55;;;18.40;81.90;;;;;;5034894;28;20291;-64
2023/03/24 05:30:27;;;;;;;1.40;1.30;;;18.30;82.00;;;;;;5034165;28;20228;-64
2023/03/24 05:33:15;;;;;;;2.20;1.55;;;18.30;82.20;;;;;;5034127;28;20205;-63
2023/03/24 05:36:03;;;;;;;1.45;1.35;;;;;;;;;;5034736;28;20679;-64
2023/03/24 05:38:51;;;;;;;1.52;1.17;;;18.30;81.30;;;;;;5034596;28;20218;-64
2023/03/24 05:41:39;;;;;;;1.20;1.10;;;18.30;81.40;;;;;;5034320;28;20284;-64
2023/03/24 05:44:30;;;;;;;1.63;1.52;;;18.30;82.00;;;;;;5033767;28;20201;-64
2023/03/24 05:47:19;;;;;;;1.70;1.48;;;18.40;82.00;;;;;;5034747;28;20345;-64
2023/03/24 05:50:07;;;;;;;2.85;1.70;;;18.40;81.70;;;;;;5034131;28;20731;-64
2023/03/24 05:52:56;;;;;;;1.20;1.10;;;18.40;82.10;;;;;;5034134;28;20198;-64
2023/03/24 05:55:45;;;;;;;1.40;1.30;;;18.40;82.10;;;;;;5034630;28;20194;-64
2023/03/24 05:58:34;;;;;;;2.35;1.50;;;18.40;81.60;;;;;;5033478;28;20590;-64
2023/03/24 06:01:24;;;;;;;1.40;1.30;;;18.40;81.30;;;;;;5034369;28;20299;-64
2023/03/24 06:04:12;;;;;;;1.40;1.30;;;18.30;81.10;;;;;;5033864;28;20198;-64
2023/03/24 06:07:01;;;;;;;2.10;1.38;;;18.40;81.90;;;;;;5033616;28;20214;-64
2023/03/24 06:09:49;;;;;;;2.42;1.70;;;18.40;82.00;;;;;;5033308;28;20657;-64
2023/03/24 06:12:38;;;;;;;1.58;1.48;;;18.40;81.80;;;;;;5032949;28;20213;-65
2023/03/24 06:15:27;;;;;;;1.42;1.33;;;18.40;82.20;;;;;;5033515;28;20208;-62
2023/03/24 06:18:16;;;;;;;2.83;2.53;;;18.40;82.30;;;;;;5033258;28;20221;-64
2023/03/24 06:21:05;;;;;;;3.80;3.50;;;18.40;82.10;;;;;;5033818;28;20202;-64
2023/03/24 06:23:55;;;;;;;3.10;2.80;;;18.40;81.40;;;;;;5033089;28;20204;-64
2023/03/24 06:26:43;;;;;;;6.47;3.72;;;18.40;81.50;;;;;;5033064;28;20221;-64
2023/03/24 06:29:32;;;;;;;13.75;6.00;;;18.40;82.30;;;;;;5033213;28;20198;-64
2023/03/24 06:32:20;;;;;;;10.48;5.10;;;18.40;82.00;;;;;;5032878;28;20198;-64
2023/03/24 06:35:10;;;;;;;5.60;4.18;;;18.40;81.90;;;;;;5033989;28;20287;-64
2023/03/24 06:37:58;;;;;;;11.32;2.90;;;18.40;82.50;;;;;;5034056;28;20214;-64
2023/03/24 06:40:46;;;;;;;3.40;2.33;;;18.40;83.10;;;;;;5028658;28;20213;-64
2023/03/24 06:43:35;;;;;;;4.85;1.98;;;18.40;82.90;;;;;;5036483;28;20210;-64
2023/03/24 06:46:24;;;;;;;2.50;2.05;;;18.40;82.90;;;;;;5038992;28;20221;-64
2023/03/24 06:49:12;;;;;;;6.25;2.88;;;18.40;82.90;;;;;;5039478;28;20251;-65
2023/03/24 06:52:02;;;;;;;1.95;1.75;;;18.40;83.00;;;;;;5040198;28;20235;-64
2023/03/24 06:54:50;;;;;;;1.30;1.10;;;18.40;83.10;;;;;;5040664;28;20194;-64
2023/03/24 06:57:38;;;;;;;1.20;1.10;;;18.40;81.10;;;;;;5039504;28;20387;-64
2023/03/24 07:00:28;;;;;;;1.45;1.35;;;18.40;80.80;;;;;;5039070;28;20249;-64
2023/03/24 07:03:16;;;;;;;2.75;1.50;;;18.40;80.40;;;;;;5038901;28;20202;-63
2023/03/24 07:06:06;;;;;;;1.75;1.52;;;18.60;91.10;;;;;;5040844;28;20688;-64
2023/03/24 07:08:55;;;;;;;4.18;1.95;;;18.50;81.90;;;;;;5038895;28;20190;-63
2023/03/24 07:11:43;;;;;;;7.38;4.13;;;18.60;82.20;;;;;;5039067;28;20278;-64
2023/03/24 07:14:32;;;;;;;11.48;5.20;;;18.50;82.40;;;;;;5040223;28;20287;-64
2023/03/24 07:17:20;;;;;;;4.72;2.85;;;18.60;82.90;;;;;;5039904;28;20323;-64
2023/03/24 07:20:10;;;;;;;2.72;2.42;;;18.50;82.70;;;;;;5040628;28;20335;-64
2023/03/24 07:22:59;;;;;;;6.53;2.90;;;18.60;82.70;;;;;;5040274;28;20229;-64
2023/03/24 07:25:48;;;;;;;459.25;77.28;;;18.60;83.00;;;;;;5038558;28;20673;-64
2023/03/24 07:28:36;;;;;;;2250.00;931.67;;;18.60;82.30;;;;;;5041455;28;20239;-64
2023/03/24 07:31:24;;;;;;;2250.00;774.03;;;18.60;82.90;;;;;;5041471;28;20281;-64
2023/03/24 07:34:12;;;;;;;2250.00;539.33;;;18.70;82.50;;;;;;5043500;28;20209;-64
2023/03/24 07:37:01;;;;;;;1745.90;399.58;;;18.60;83.30;;;;;;5041148;28;20226;-64
2023/03/24 07:39:49;;;;;;;878.60;202.82;;;18.60;83.00;;;;;;5047027;28;20871;-63
2023/03/24 07:42:38;;;;;;;678.15;127.53;;;18.60;83.20;;;;;;5039910;28;20233;-62
2023/03/24 07:45:27;;;;;;;519.75;90.22;;;18.60;83.50;;;;;;5041698;28;20574;-64
2023/03/24 07:48:15;;;;;;;312.33;49.47;;;18.60;83.40;;;;;;5040305;28;20640;-63
2023/03/24 07:51:03;;;;;;;217.20;34.33;;;18.60;83.30;;;;;;5038698;28;20333;-63
2023/03/24 07:53:51;;;;;;;154.43;27.60;;;18.60;83.20;;;;;;5039922;28;20205;-62
2023/03/24 07:56:40;;;;;;;150.70;21.30;;;18.60;83.50;;;;;;5038587;28;20226;-63
2023/03/24 07:59:30;;;;;;;106.97;16.83;;;18.60;83.90;;;;;;5039678;28;20214;-64
2023/03/24 08:02:19;;;;;;;87.72;15.90;;;18.60;84.20;;;;;;5039238;28;20202;-63
2023/03/24 08:05:12;;;;;;;115.57;17.85;;;18.60;84.00;;;;;;5039200;28;20204;-62
2023/03/24 08:08:01;;;;;;;76.57;16.35;;;18.60;83.90;;;;;;5037096;28;20221;-64
2023/03/24 08:10:49;;;;;;;106.53;18.08;;;18.60;84.40;;;;;;5037559;28;20732;-64
2023/03/24 08:13:38;;;;;;;94.38;17.30;;;18.60;84.20;;;;;;5037604;28;21433;-64
2023/03/24 08:16:27;;;;;;;99.45;17.13;;;18.60;84.00;;;;;;5038199;28;20299;-64
2023/03/24 08:19:15;;;;;;;74.10;12.68;;;18.60;84.10;;;;;;5038509;28;20295;-64
2023/03/24 08:22:03;;;;;;;75.63;13.27;;;18.60;84.00;;;;;;5038135;28;20304;-64
2023/03/24 08:24:51;;;;;;;63.08;13.18;;;18.60;83.80;;;;;;5038771;28;20206;-64
2023/03/24 08:27:43;;;;;;;48.05;9.48;;;18.60;84.00;;;;;;5038965;28;20224;-64
2023/03/24 08:30:32;;;;;;;63.20;10.85;;;18.60;83.30;;;;;;5037452;28;20205;-64
2023/03/24 08:33:21;;;;;;;228.13;25.05;;;18.60;83.30;;;;;;5039390;28;20201;-64
2023/03/24 08:36:09;;;;;;;340.05;40.80;;;18.70;91.90;;;;;;5043006;28;20259;-64
2023/03/24 08:39:00;;;;;;;237.07;29.13;;;18.60;83.50;;;;;;5042663;28;20696;-64
2023/03/24 08:41:49;;;;;;;110.45;16.52;;;18.70;83.10;;;;;;5041623;28;20260;-64
2023/03/24 08:44:37;;;;;;;82.78;15.68;;;18.70;83.40;;;;;;5042421;28;20197;-64
2023/03/24 08:47:25;;;;;;;73.63;11.07;;;18.70;83.10;;;;;;5041786;28;20256;-64
2023/03/24 08:50:15;;;;;;;52.25;8.93;;;18.70;84.00;;;;;;5041356;28;20782;-64
2023/03/24 08:53:03;;;;;;;81.03;12.45;;;18.70;83.90;;;;;;5041557;28;20201;-64
2023/03/24 08:55:51;;;;;;;48.22;10.70;;;18.70;83.90;;;;;;5042516;28;20254;-63
2023/03/24 08:58:40;;;;;;;32.28;7.28;;;18.70;83.90;;;;;;5043004;28;20253;-63
2023/03/24 09:01:28;;;;;;;46.05;9.05;;;18.70;83.90;;;;;;5041277;28;20249;-61
2023/03/24 09:04:16;;;;;;;53.55;10.27;;;18.70;83.90;;;;;;5042097;28;20193;-64
2023/03/24 09:07:06;;;;;;;41.70;6.70;;;18.70;83.90;;;;;;5042403;28;20578;-64
2023/03/24 09:09:54;;;;;;;43.17;7.45;;;18.70;83.90;;;;;;5041105;28;20189;-64
2023/03/24 09:12:44;;;;;;;48.67;8.43;;;18.60;83.80;;;;;;5041387;28;20686;-64
2023/03/24 09:15:32;;;;;;;40.67;8.18;;;18.70;84.30;;;;;;5040555;28;20705;-63
2023/03/24 09:18:21;;;;;;;37.47;9.10;;;18.60;83.80;;;;;;5041371;28;20290;-64
2023/03/24 09:21:10;;;;;;;53.53;13.18;;;18.70;84.20;;;;;;5041558;28;20214;-64
2023/03/24 09:23:59;;;;;;;46.13;8.50;;;18.70;83.70;;;;;;5042360;28;20202;-66
2023/03/24 09:26:47;;;;;;;31.50;6.43;;;18.70;84.00;;;;;;5041914;28;20232;-65
2023/03/24 09:29:37;;;;;;;43.40;8.80;;;18.70;84.10;;;;;;5042091;28;20320;-65
2023/03/24 09:32:25;;;;;;;47.08;10.30;;;18.70;84.30;;;;;;5040378;28;20279;-65
2023/03/24 09:35:14;;;;;;;49.35;10.57;;;18.70;83.90;;;;;;5041673;28;20210;-65
2023/03/24 09:38:02;;;;;;;68.15;11.50;;;18.70;84.10;;;;;;5041630;28;20209;-65
2023/03/24 09:40:56;;;;;;;125.65;16.05;;;18.80;84.30;;;;;;5040994;28;20214;-64
2023/03/24 09:43:50;;;;;;;81.32;14.68;;;18.80;84.00;;;;;;5041719;28;20217;-65
2023/03/24 09:46:48;;;;;;;74.50;11.20;;;18.80;83.70;;;;;;5042076;28;20228;-65
2023/03/24 09:49:39;;;;;;;102.95;15.00;;;18.80;83.50;;;;;;5041436;28;20581;-65
2023/03/24 09:52:33;;;;;;;39.80;10.02;;;18.80;83.60;;;;;;5041007;28;20265;-64
2023/03/24 09:55:24;;;;;;;25.38;6.05;;;18.80;83.30;;;;;;5042367;28;20259;-65
2023/03/24 09:58:13;;;;;;;31.48;6.35;;;18.80;83.90;;;;;;5039821;28;20251;-65
2023/03/24 10:01:02;;;;;;;35.63;6.93;;;18.80;83.90;;;;;;5040279;28;20280;-64
2023/03/24 10:03:50;;;;;;;17.23;4.90;;;18.70;83.90;;;;;;5041369;28;20193;-64
2023/03/24 10:06:40;;;;;;;24.70;5.53;;;18.80;83.80;;;;;;5040744;28;20220;-64
2023/03/24 10:09:31;;;;;;;27.23;6.68;;;18.80;84.50;;;;;;5040010;28;20227;-64
2023/03/24 10:12:32;;;;;;;20.85;4.07;;;18.80;84.30;;;;;;5040138;28;20277;-64
2023/03/24 10:15:30;;;;;;;17.40;4.78;;;18.80;84.70;;;;;;5040665;28;20219;-64
2023/03/24 10:18:33;;;;;;;17.52;5.18;;;18.80;85.00;;;;;;5040070;28;20244;-65
2023/03/24 10:21:25;;;;;;;31.45;7.60;;;18.80;84.20;;;;;;5041777;28;20312;-65
2023/03/24 10:24:22;;;;;;;32.88;8.95;;;18.70;83.50;;;;;;5040134;28;20234;-64
2023/03/24 10:27:18;;;;;;;29.58;6.10;;;18.70;83.80;;;;;;5039318;28;20217;-64
2023/03/24 10:30:14;;;;;;;27.27;4.95;;;18.80;83.70;;;;;;5040130;28;20699;-65
2023/03/24 10:33:03;;;;;;;15.98;4.35;;;18.80;84.20;;;;;;5038486;28;20252;-65
2023/03/24 10:36:00;;;;;;;18.40;4.97;;;18.70;84.30;;;;;;5038583;28;20209;-65
2023/03/24 10:38:48;;;;;;;21.23;6.60;;;18.80;84.30;;;;;;5041713;28;20719;-63
2023/03/24 10:41:37;;;;;;;20.73;5.38;;;18.80;83.80;;;;;;5040839;28;20250;-64
2023/03/24 10:44:26;;;;;;;15.30;4.90;;;18.80;84.10;;;;;;5039853;28;20666;-65
2023/03/24 10:47:18;;;;;;;13.27;4.20;;;18.80;83.50;;;;;;5039677;28;20315;-65
2023/03/24 10:50:08;;;;;;;12.98;4.75;;;18.80;83.70;;;;;;5040598;28;20206;-65
2023/03/24 10:53:08;;;;;;;28.40;5.45;;;18.80;83.70;;;;;;5039550;28;20205;-64
2023/03/24 10:55:58;;;;;;;16.65;5.22;;;18.80;83.20;;;;;;5038772;28;20308;-65
2023/03/24 10:58:47;;;;;;;15.40;4.60;;;18.80;83.00;;;;;;5040203;28;20190;-65
2023/03/24 11:01:37;;;;;;;19.55;4.22;;;18.90;83.00;;;;;;5038986;28;20250;-65
2023/03/24 11:04:27;;;;;;;24.08;5.18;;;18.90;83.40;;;;;;5039833;28;20570;-63
2023/03/24 11:07:19;;;;;;;17.25;3.65;;;18.90;83.10;;;;;;5038951;28;20301;-65
2023/03/24 11:10:15;;;;;;;17.17;4.72;;;18.90;83.10;;;;;;5039992;28;20278;-64
2023/03/24 11:13:06;;;;;;;17.42;4.97;;;18.90;82.50;;;;;;5039618;28;20205;-65
2023/03/24 11:15:57;;;;;;;15.60;4.90;;;18.90;82.60;;;;;;5039885;28;20280;-65
2023/03/24 11:18:57;;;;;;;21.52;4.50;;;19.00;82.20;;;;;;5041005;28;20230;-64
2023/03/24 11:21:46;;;;;;;288.15;25.38;;;18.90;81.90;;;;;;5040623;28;20229;-64
2023/03/24 11:24:38;;;;;;;46.55;7.68;;;19.00;82.40;;;;;;5039744;28;20229;-64
2023/03/24 11:27:27;;;;;;;40.95;8.13;;;18.90;81.70;;;;;;5039686;28;20217;-64
2023/03/24 11:30:16;;;;;;;20.70;4.80;;;19.00;82.10;;;;;;5039489;28;20268;-64
2023/03/24 11:33:05;;;;;;;15.05;4.22;;;19.00;82.20;;;;;;5038843;28;20697;-64
2023/03/24 11:35:54;;;;;;;17.13;3.85;;;19.00;82.20;;;;;;5037163;28;20206;-64
2023/03/24 11:38:59;;;;;;;14.45;4.45;;;19.00;82.10;;;;;;5040117;28;20601;-64
2023/03/24 11:42:01;;;;;;;10.55;4.32;;;19.00;81.90;;;;;;5038499;28;20775;-64
2023/03/24 11:44:51;;;;;;;15.20;4.75;;;19.00;82.00;;;;;;5038777;28;20197;-64
2023/03/24 11:47:40;;;;;;;11.90;4.03;;;19.00;82.00;;;;;;5039129;28;20245;-64
2023/03/24 11:50:30;;;;;;;18.20;4.05;;;19.00;82.10;;;;;;5038510;28;20205;-64
2023/03/24 11:53:22;;;;;;;12.52;4.05;;;19.00;82.10;;;;;;5038919;28;20259;-64
2023/03/24 11:56:16;;;;;;;10.30;3.45;;;18.90;91.00;;;;;;5037532;28;20630;-64
2023/03/24 11:59:13;;;;;;;11.55;2.95;;;19.00;82.10;;;;;;5038001;28;20622;-64
2023/03/24 12:02:12;;;;;;;11.88;3.60;;;19.00;82.00;;;;;;5037850;28;20329;-64
2023/03/24 12:05:14;;;;;;;9.68;4.10;;;19.00;82.20;;;;;;5040223;28;20568;-64
2023/03/24 12:08:42;;;;;;;8.68;4.07;;;19.00;82.10;;;;;;5039087;28;20268;-64
2023/03/24 12:11:40;;;;;;;7.60;3.10;;;19.00;82.30;;;;;;4957341;28;20244;-64
2023/03/24 12:14:38;;;;;;;11.40;3.67;;;19.00;83.00;;;;;;5038904;28;20203;-64
2023/03/24 12:17:34;;;;;;;10.10;3.25;;;19.00;82.10;;;;;;5037808;28;20659;-64
2023/03/24 12:20:29;;;;;;;10.07;3.33;;;19.00;82.20;;;;;;5036276;28;20205;-64
2023/03/24 12:23:23;;;;;;;17.38;4.00;;;19.00;82.20;;;;;;5033664;28;20247;-64
2023/03/24 12:26:20;;;;;;;10.45;2.85;;;19.10;93.50;;;;;;5035114;28;20202;-63
2023/03/24 12:29:26;;;;;;;7.57;3.03;;;18.90;82.00;;;;;;5038903;28;20217;-64
2023/03/24 12:32:47;;;;;;;8.60;3.00;;;19.00;81.90;;;;;;5037883;28;20230;-64
2023/03/24 12:35:45;;;;;;;7.05;2.67;;;19.00;81.60;;;;;;5037493;28;20285;-64
2023/03/24 12:38:46;;;;;;;9.70;3.20;;;18.90;80.90;;;;;;5013638;28;20675;-64
2023/03/24 12:41:49;;;;;;;7.35;2.90;;;19.10;81.20;;;;;;5025977;28;20260;-64
2023/03/24 12:44:53;;;;;;;5.35;2.15;;;18.90;81.10;;;;;;5032898;28;20737;-64
2023/03/24 12:47:56;;;;;;;10.23;3.42;;;19.00;81.10;;;;;;5013238;28;20280;-64
2023/03/24 12:50:57;;;;;;;9.48;2.97;;;18.90;81.00;;;;;;5018945;28;20206;-63
2023/03/24 12:53:55;;;;;;;10.07;2.83;;;18.90;80.90;;;;;;5031397;28;20677;-64
2023/03/24 12:56:48;;;;;;;6.85;2.58;;;18.90;80.90;;;;;;5031627;28;20225;-64
2023/03/24 12:59:41;;;;;;;6.57;2.78;;;18.90;81.00;;;;;;5031668;28;20667;-64
2023/03/24 13:02:33;;;;;;;6.32;3.38;;;18.70;80.70;;;;;;5031647;28;20244;-64
2023/03/24 13:05:30;;;;;;;6.63;2.83;;;18.90;80.70;;;;;;5031619;28;20625;-63
2023/03/24 13:08:28;;;;;;;10.00;3.03;;;18.90;80.70;;;;;;5030676;28;20610;-64
2023/03/24 13:11:20;;;;;;;9.65;3.60;;;18.90;80.60;;;;;;5031493;28;20209;-64
2023/03/24 13:14:25;;;;;;;6.05;2.70;;;18.80;80.10;;;;;;5032511;28;20205;-64
2023/03/24 13:17:17;;;;;;;4.68;3.13;;;18.90;79.80;;;;;;5030903;28;20363;-64
2023/03/24 13:20:12;;;;;;;6.20;2.28;;;18.90;79.50;;;;;;5033443;28;20198;-64
2023/03/24 13:23:11;;;;;;;8.05;2.30;;;19.00;78.80;;;;;;5035832;28;20640;-64
2023/03/24 13:26:08;;;;;;;5.90;2.92;;;19.00;78.70;;;;;;5035190;28;20446;-64
2023/03/24 13:29:10;;;;;;;6.70;2.33;;;19.00;78.90;;;;;;5035504;28;20206;-64
2023/03/24 13:32:04;;;;;;;4.65;2.58;;;19.00;78.90;;;;;;5034960;28;20194;-64
2023/03/24 13:34:57;;;;;;;6.43;2.53;;;19.00;77.70;;;;;;5036603;28;20221;-64
2023/03/24 13:37:49;;;;;;;4.75;1.80;;;19.00;78.00;;;;;;5035802;28;20268;-64
2023/03/24 13:40:40;;;;;;;3.80;1.60;;;19.00;78.30;;;;;;5036221;28;20229;-64
2023/03/24 13:43:31;;;;;;;7.30;2.08;;;18.90;78.30;;;;;;5035250;28;20240;-64
2023/03/24 13:46:19;;;;;;;4.28;1.77;;;19.10;91.40;;;;;;5036098;28;20651;-64
2023/03/24 13:49:12;;;;;;;6.90;2.17;;;19.00;77.00;;;;;;5035279;28;20206;-63
2023/03/24 13:52:05;;;;;;;25.88;3.63;;;19.00;76.50;;;;;;5035259;28;20226;-64
2023/03/24 13:54:57;;;;;;;16.15;3.10;;;19.00;76.50;;;;;;5036262;28;20328;-64
2023/03/24 13:57:55;;;;;;;48.60;6.53;;;18.90;77.20;;;;;;5024457;28;20234;-63
2023/03/24 14:01:06;;;;;;;19.90;3.35;;;18.90;75.10;;;;;;5016224;28;20253;-64
2023/03/24 14:04:20;;;;;;;7.93;2.03;;;19.00;74.30;;;;;;5015495;28;20600;-64
2023/03/24 14:07:32;;;;;;;8.27;2.15;;;18.90;74.70;;;;;;5014868;28;20214;-64
2023/03/24 14:10:45;;;;;;;7.75;2.17;;;18.90;74.70;;;;;;5015258;28;20285;-64
2023/03/24 14:13:46;;;;;;;6.25;1.52;;;18.90;74.40;;;;;;5008101;28;20199;-64
2023/03/24 14:16:43;;;;;;;4.57;1.77;;;18.90;75.00;;;;;;5014719;28;20237;-64
2023/03/24 14:19:37;;;;;;;6.85;2.17;;;18.90;74.80;;;;;;5014597;28;20715;-64
2023/03/24 14:22:29;;;;;;;5.28;1.80;;;18.90;74.50;;;;;;5014234;28;20254;-64
2023/03/24 14:25:27;;;;;;;2.28;1.65;;;18.90;76.10;;;;;;5014382;28;20626;-64
2023/03/24 14:28:22;;;;;;;3.20;2.28;;;18.90;75.10;;;;;;5014409;28;20222;-64
2023/03/24 14:31:30;;;;;;;4.80;2.60;;;18.90;74.40;;;;;;5013303;28;20205;-64
2023/03/24 14:34:24;;;;;;;7.78;2.33;;;18.90;74.00;;;;;;5014498;28;20214;-64
2023/03/24 14:37:15;;;;;;;5.72;2.58;;;18.90;73.60;;;;;;5014836;28;20306;-64
2023/03/24 14:40:05;;;;;;;5.50;1.73;;;18.90;74.10;;;;;;5014715;28;20704;-64
2023/03/24 14:43:12;;;;;;;3.95;1.48;;;19.00;73.80;;;;;;5014367;28;20218;-64
2023/03/24 14:46:01;;;;;;;3.33;2.28;;;19.00;74.00;;;;;;5014536;28;20352;-64
2023/03/24 14:48:56;;;;;;;3.35;1.85;;;19.00;74.30;;;;;;5014630;28;20198;-64
2023/03/24 14:51:50;;;;;;;3.33;1.55;;;18.90;74.00;;;;;;5014421;28;20218;-64